Christmas Valley, Oregon
Current Conditions -  °F | °C
As of 3:15 PM on Saturday 25 Oct 2014 (Local Time) from KBDN Reporting Station
Light Rain Light Rain  
Wind Chill: 57°   Ceiling: Unl
Heat Index: 57°   Visibility: 10mi
Dew Point: 39°   Wind: 37mph
Humidity: 51%   Direction: 210°SSW
Pressure: 29.58"   Gusts: 49mph
Location:  43.24°N, 120.54°W
Report Text: KBDN 252215Z AUTO 21032G43KT 10SM -RA FEW030 FEW034 14/04 A2958 RMK AO2
Loading
Personal Weather Stations






























Interactive Weather Map
Tropical Storm Tracking
New forecast layout! Learn more

10-Day Weather Forecast

Advertisements
Track Severe Weather on mobile